createdAt,value
2023-04-16T00:00:52.000Z,8
2023-04-16T00:01:58.000Z,8.3
2023-04-16T00:03:04.000Z,7
2023-04-16T00:04:10.000Z,8.3
2023-04-16T00:05:16.000Z,8.7
2023-04-16T00:06:22.000Z,7.7
2023-04-16T00:07:28.000Z,8
2023-04-16T00:08:34.000Z,8.3
2023-04-16T00:09:40.000Z,8
2023-04-16T00:10:46.000Z,7.4
2023-04-16T00:11:52.000Z,8.3
2023-04-16T00:12:58.000Z,8.3
2023-04-16T00:14:05.000Z,7
2023-04-16T00:15:10.000Z,8
2023-04-16T00:16:15.000Z,8
2023-04-16T00:17:21.000Z,8
2023-04-16T00:18:27.000Z,7.7
2023-04-16T00:19:33.000Z,8.7
2023-04-16T00:20:39.000Z,8
2023-04-16T00:21:45.000Z,7.7
2023-04-16T00:22:51.000Z,8.7
2023-04-16T00:23:57.000Z,8.3
2023-04-16T00:25:03.000Z,8.7
2023-04-16T00:26:10.000Z,8.3
2023-04-16T00:27:15.000Z,8
2023-04-16T00:28:20.000Z,8.3
2023-04-16T00:29:26.000Z,8.7
2023-04-16T00:30:32.000Z,8
2023-04-16T00:31:38.000Z,8.3
2023-04-16T00:34:56.000Z,9
2023-04-16T00:36:02.000Z,7.4
2023-04-16T00:37:08.000Z,8.7
2023-04-16T00:38:14.000Z,8
2023-04-16T00:39:20.000Z,9
2023-04-16T00:40:27.000Z,8
2023-04-16T00:41:32.000Z,8
2023-04-16T00:42:37.000Z,7.7
2023-04-16T00:44:49.000Z,8.7
2023-04-16T00:45:55.000Z,8.3
2023-04-16T00:47:01.000Z,8.7
2023-04-16T00:48:07.000Z,8.3
2023-04-16T00:49:13.000Z,8
2023-04-16T00:50:19.000Z,8.3
2023-04-16T00:51:25.000Z,8.3
2023-04-16T00:52:31.000Z,8.7
2023-04-16T00:53:38.000Z,7.7
2023-04-16T00:55:50.000Z,8
2023-04-16T00:56:55.000Z,8.7
2023-04-16T00:58:00.000Z,8
2023-04-16T00:59:06.000Z,8
2023-04-16T01:00:12.000Z,7
2023-04-16T01:01:18.000Z,8.3
2023-04-16T01:02:24.000Z,9
2023-04-16T01:03:30.000Z,8
2023-04-16T01:04:36.000Z,8.7
2023-04-16T01:05:42.000Z,7
2023-04-16T01:06:48.000Z,8
2023-04-16T01:11:13.000Z,9
2023-04-16T01:12:19.000Z,8.7
2023-04-16T01:14:30.000Z,8.7
2023-04-16T01:15:36.000Z,8.3
2023-04-16T01:16:42.000Z,8.7
2023-04-16T01:17:48.000Z,8.3
2023-04-16T01:18:54.000Z,8
2023-04-16T01:20:00.000Z,7.7
2023-04-16T01:21:06.000Z,8.3
2023-04-16T01:22:13.000Z,8.3
2023-04-16T01:23:19.000Z,8.7
2023-04-16T01:24:25.000Z,8
2023-04-16T01:25:31.000Z,8.3
2023-04-16T01:26:37.000Z,8.3
2023-04-16T01:28:48.000Z,8.3
2023-04-16T01:29:54.000Z,8.7
2023-04-16T01:31:00.000Z,8.3
2023-04-16T01:32:06.000Z,7.7
2023-04-16T01:33:12.000Z,8.3
2023-04-16T01:34:18.000Z,8
2023-04-16T01:35:24.000Z,7.7
2023-04-16T01:36:30.000Z,7.7
2023-04-16T01:37:37.000Z,8.3
2023-04-16T01:39:48.000Z,8
2023-04-16T01:40:53.000Z,7.7
2023-04-16T01:41:59.000Z,8
2023-04-16T01:43:05.000Z,7.7
2023-04-16T01:44:11.000Z,8.3
2023-04-16T01:45:17.000Z,7.7
2023-04-16T01:46:22.000Z,8.3
2023-04-16T01:47:28.000Z,8
2023-04-16T01:48:34.000Z,8
2023-04-16T01:49:40.000Z,8
2023-04-16T01:50:47.000Z,7.7
2023-04-16T01:51:52.000Z,8.7
2023-04-16T01:52:57.000Z,8.7
2023-04-16T01:54:03.000Z,9
2023-04-16T01:55:09.000Z,8.3
2023-04-16T01:56:15.000Z,9
2023-04-16T01:57:21.000Z,8
2023-04-16T01:58:27.000Z,9
2023-04-16T01:59:33.000Z,8
2023-04-16T02:02:51.000Z,8.3
2023-04-16T02:03:57.000Z,8
2023-04-16T02:05:04.000Z,8.3
2023-04-16T02:06:09.000Z,8
2023-04-16T02:07:14.000Z,8.7
2023-04-16T02:08:20.000Z,7.7
2023-04-16T02:09:26.000Z,8.7
2023-04-16T02:10:32.000Z,8.3
2023-04-16T02:11:38.000Z,8.3
2023-04-16T02:12:44.000Z,7.7
2023-04-16T02:13:50.000Z,9
2023-04-16T02:14:56.000Z,8.3
2023-04-16T02:16:02.000Z,7.7
2023-04-16T02:17:08.000Z,8.3
2023-04-16T02:18:14.000Z,7.7
2023-04-16T02:19:19.000Z,8
2023-04-16T02:20:25.000Z,8.3
2023-04-16T02:21:31.000Z,8.3
2023-04-16T02:22:37.000Z,8.3
2023-04-16T02:23:43.000Z,8
2023-04-16T02:24:49.000Z,8.3
2023-04-16T02:25:55.000Z,8.3
2023-04-16T02:27:01.000Z,8.3
2023-04-16T02:28:07.000Z,8.7
2023-04-16T02:29:13.000Z,7.7
2023-04-16T02:30:19.000Z,8.3
2023-04-16T02:31:25.000Z,8.7
2023-04-16T02:32:30.000Z,8
2023-04-16T02:33:36.000Z,8.7
2023-04-16T02:34:42.000Z,8
2023-04-16T02:35:48.000Z,8.7
2023-04-16T02:36:54.000Z,8.3
2023-04-16T02:38:00.000Z,8.7
2023-04-16T02:39:06.000Z,8
2023-04-16T02:40:12.000Z,8.3
2023-04-16T02:41:18.000Z,8.3
2023-04-16T02:42:24.000Z,8
2023-04-16T02:43:30.000Z,8
2023-04-16T02:45:43.000Z,8.7
2023-04-16T02:46:48.000Z,8.3
2023-04-16T02:47:54.000Z,8.3
2023-04-16T02:49:00.000Z,8.3
2023-04-16T02:50:06.000Z,7.7
2023-04-16T02:51:12.000Z,8.7
2023-04-16T02:52:18.000Z,7.7
2023-04-16T02:53:24.000Z,9
2023-04-16T02:54:30.000Z,7.7
2023-04-16T02:55:36.000Z,8.3
2023-04-16T02:56:42.000Z,8.7
2023-04-16T02:57:48.000Z,8.7
2023-04-16T02:58:54.000Z,7.7
2023-04-16T03:00:00.000Z,8.3
2023-04-16T03:01:06.000Z,8.3
2023-04-16T03:03:18.000Z,8
2023-04-16T03:04:24.000Z,7.7
2023-04-16T03:05:30.000Z,8
2023-04-16T03:06:36.000Z,8.3
2023-04-16T03:07:42.000Z,7.7
2023-04-16T03:08:48.000Z,8.3
2023-04-16T03:09:54.000Z,9
2023-04-16T03:11:00.000Z,8.3
2023-04-16T03:12:06.000Z,8
2023-04-16T03:13:13.000Z,8.3
2023-04-16T03:14:19.000Z,8
2023-04-16T03:15:25.000Z,7.7
2023-04-16T03:16:30.000Z,8.3
2023-04-16T03:17:36.000Z,8
2023-04-16T03:18:42.000Z,8
2023-04-16T03:19:48.000Z,7.7
2023-04-16T03:20:54.000Z,8
2023-04-16T03:22:00.000Z,7.7
2023-04-16T03:23:06.000Z,8
2023-04-16T03:24:12.000Z,7.7
2023-04-16T03:25:18.000Z,7.7
2023-04-16T03:26:24.000Z,7.4
2023-04-16T03:27:30.000Z,8
2023-04-16T03:28:37.000Z,8.3
2023-04-16T03:30:49.000Z,8.7
2023-04-16T03:31:55.000Z,8
2023-04-16T03:33:00.000Z,9
2023-04-16T03:34:06.000Z,8
2023-04-16T03:35:12.000Z,8
2023-04-16T03:36:18.000Z,8.3
2023-04-16T03:37:24.000Z,8.7
2023-04-16T03:38:30.000Z,9
2023-04-16T03:40:43.000Z,8.7
2023-04-16T03:41:49.000Z,8
2023-04-16T03:42:55.000Z,8.7
2023-04-16T03:44:01.000Z,7.7
2023-04-16T03:45:07.000Z,8.7
2023-04-16T03:46:13.000Z,8.7
2023-04-16T03:47:18.000Z,9
2023-04-16T03:48:24.000Z,8.3
2023-04-16T03:49:30.000Z,8.3
2023-04-16T03:51:42.000Z,8.3
2023-04-16T03:52:47.000Z,8
2023-04-16T03:53:52.000Z,9
2023-04-16T03:54:58.000Z,8.3
2023-04-16T03:56:05.000Z,8.3
2023-04-16T03:57:11.000Z,8.7
2023-04-16T03:58:17.000Z,7.7
2023-04-16T03:59:23.000Z,8
2023-04-16T04:00:29.000Z,8
2023-04-16T04:01:35.000Z,8.3
2023-04-16T04:02:41.000Z,8
2023-04-16T04:03:47.000Z,8
2023-04-16T04:04:52.000Z,8
2023-04-16T04:05:57.000Z,7.7
2023-04-16T04:07:03.000Z,8.3
2023-04-16T04:08:09.000Z,8
2023-04-16T04:09:16.000Z,8.7
2023-04-16T04:10:22.000Z,8.3
2023-04-16T04:11:28.000Z,8.3
2023-04-16T04:12:34.000Z,8
2023-04-16T04:13:40.000Z,8.3
2023-04-16T04:14:46.000Z,7.4
2023-04-16T04:15:52.000Z,8
2023-04-16T04:16:58.000Z,8.7
2023-04-16T04:18:04.000Z,7.4
2023-04-16T04:19:10.000Z,8
2023-04-16T04:20:15.000Z,8.7
2023-04-16T04:21:21.000Z,8
2023-04-16T04:22:27.000Z,8.3
2023-04-16T04:23:33.000Z,8.7
2023-04-16T04:24:40.000Z,7.7
2023-04-16T04:25:46.000Z,8
2023-04-16T04:26:52.000Z,8.7
2023-04-16T04:27:58.000Z,8
2023-04-16T04:29:04.000Z,8
2023-04-16T04:30:10.000Z,7.7
2023-04-16T04:31:16.000Z,8.7
2023-04-16T04:32:22.000Z,7.7
2023-04-16T04:33:28.000Z,8.7
2023-04-16T04:35:39.000Z,8.7
2023-04-16T04:36:46.000Z,8
2023-04-16T04:37:52.000Z,7.4
2023-04-16T04:38:58.000Z,8.7
2023-04-16T04:40:04.000Z,8.3
2023-04-16T04:41:10.000Z,8
2023-04-16T04:42:16.000Z,8
2023-04-16T04:43:22.000Z,7.7
2023-04-16T04:44:28.000Z,8.3
2023-04-16T04:45:34.000Z,9.3
2023-04-16T04:46:40.000Z,8.3
2023-04-16T04:47:46.000Z,8.3
2023-04-16T04:48:51.000Z,7.4
2023-04-16T04:49:57.000Z,8
2023-04-16T04:51:04.000Z,7.7
2023-04-16T04:52:10.000Z,8.3
2023-04-16T04:53:16.000Z,8.3
2023-04-16T04:54:22.000Z,8.3
2023-04-16T04:55:28.000Z,7.7
2023-04-16T04:56:34.000Z,8.3
2023-04-16T04:57:40.000Z,8.7
2023-04-16T04:58:46.000Z,8
2023-04-16T04:59:52.000Z,8
2023-04-16T05:00:58.000Z,8.7
2023-04-16T05:02:04.000Z,8.3
2023-04-16T05:03:09.000Z,8
2023-04-16T05:04:15.000Z,8.7
2023-04-16T05:05:22.000Z,8.7
2023-04-16T05:06:28.000Z,8.7
2023-04-16T05:07:34.000Z,8
2023-04-16T05:08:40.000Z,8
2023-04-16T05:09:46.000Z,7.7
2023-04-16T05:10:52.000Z,7.7
2023-04-16T05:11:58.000Z,8
2023-04-16T05:13:04.000Z,8
2023-04-16T05:14:10.000Z,8.3
2023-04-16T05:15:16.000Z,8.3
2023-04-16T05:16:22.000Z,8.3
2023-04-16T05:17:27.000Z,7.7
2023-04-16T05:18:33.000Z,8
2023-04-16T05:19:39.000Z,8.3
2023-04-16T05:20:46.000Z,8.3
2023-04-16T05:21:52.000Z,8
2023-04-16T05:22:58.000Z,8.7
2023-04-16T05:24:04.000Z,8.3
2023-04-16T05:25:10.000Z,9
2023-04-16T05:26:16.000Z,8
2023-04-16T05:27:21.000Z,8.7
2023-04-16T05:28:27.000Z,8.3
2023-04-16T05:30:39.000Z,7.7
2023-04-16T05:31:45.000Z,7.7
2023-04-16T05:32:51.000Z,8.7
2023-04-16T05:33:57.000Z,7.7
2023-04-16T05:35:04.000Z,8.3
2023-04-16T05:36:10.000Z,8
2023-04-16T05:37:16.000Z,8.7
2023-04-16T05:38:22.000Z,8
2023-04-16T05:39:28.000Z,7.7
2023-04-16T05:40:34.000Z,8.3
2023-04-16T05:41:39.000Z,8.3
2023-04-16T05:42:45.000Z,9.3
2023-04-16T05:43:51.000Z,7.7
2023-04-16T05:44:57.000Z,8.3
2023-04-16T05:46:03.000Z,7.7
2023-04-16T05:47:09.000Z,8.3
2023-04-16T05:48:15.000Z,7.7
2023-04-16T05:50:28.000Z,8.7
2023-04-16T05:51:34.000Z,9
2023-04-16T05:53:46.000Z,8
2023-04-16T05:54:52.000Z,8
2023-04-16T05:55:57.000Z,9
2023-04-16T05:57:03.000Z,7.7
2023-04-16T05:58:09.000Z,8
2023-04-16T05:59:15.000Z,9
2023-04-16T06:00:21.000Z,8
2023-04-16T06:01:27.000Z,7.4
2023-04-16T06:02:33.000Z,8.3
2023-04-16T06:03:39.000Z,8
2023-04-16T06:04:46.000Z,9
2023-04-16T06:05:52.000Z,7.7
2023-04-16T06:06:58.000Z,9
2023-04-16T06:08:04.000Z,7.7
2023-04-16T06:09:10.000Z,8
2023-04-16T06:10:15.000Z,8.3
2023-04-16T06:11:21.000Z,7.7
2023-04-16T06:12:27.000Z,8.3
2023-04-16T06:14:39.000Z,8
2023-04-16T06:15:45.000Z,8.3
2023-04-16T06:16:51.000Z,7.7
2023-04-16T06:17:58.000Z,8.3
2023-04-16T06:19:04.000Z,8.3
2023-04-16T06:20:10.000Z,8
2023-04-16T06:21:16.000Z,8.3
2023-04-16T06:22:22.000Z,7.7
2023-04-16T06:23:28.000Z,8.3
2023-04-16T06:25:39.000Z,8.3
2023-04-16T06:26:45.000Z,9
2023-04-16T06:27:51.000Z,7.7
2023-04-16T06:28:57.000Z,8
2023-04-16T06:30:03.000Z,8
2023-04-16T06:31:09.000Z,8.3
2023-04-16T06:32:16.000Z,9
2023-04-16T06:33:22.000Z,9.3
2023-04-16T06:34:28.000Z,8.3
2023-04-16T06:35:34.000Z,8.7
2023-04-16T06:36:40.000Z,8.3
2023-04-16T06:37:46.000Z,8
2023-04-16T06:38:51.000Z,8.7
2023-04-16T06:39:57.000Z,8.7
2023-04-16T06:41:03.000Z,8
2023-04-16T06:42:09.000Z,8.3
2023-04-16T06:43:15.000Z,7.7
2023-04-16T06:44:21.000Z,7.7
2023-04-16T06:45:27.000Z,8.7
2023-04-16T06:46:34.000Z,8.7
2023-04-16T06:47:40.000Z,8
2023-04-16T06:48:46.000Z,8.3
2023-04-16T06:49:52.000Z,7.4
2023-04-16T06:50:58.000Z,8.3
2023-04-16T06:52:03.000Z,9
2023-04-16T06:53:08.000Z,8.3
2023-04-16T06:54:14.000Z,7.7
2023-04-16T06:55:20.000Z,8.3
2023-04-16T06:56:26.000Z,7.7
2023-04-16T06:57:32.000Z,7.7
2023-04-16T06:58:38.000Z,8.7
2023-04-16T06:59:45.000Z,8.3
2023-04-16T07:00:51.000Z,8
2023-04-16T07:01:57.000Z,8.3
2023-04-16T07:03:03.000Z,7.7
2023-04-16T07:04:09.000Z,7.7
2023-04-16T07:05:15.000Z,8.3
2023-04-16T07:06:21.000Z,8.3
2023-04-16T07:07:26.000Z,8.7
2023-04-16T07:09:38.000Z,8.7
2023-04-16T07:10:44.000Z,8
2023-04-16T07:11:50.000Z,8
2023-04-16T07:12:56.000Z,8
2023-04-16T07:14:03.000Z,8
2023-04-16T07:15:09.000Z,8.7
2023-04-16T07:16:15.000Z,7.7
2023-04-16T07:17:21.000Z,7.7
2023-04-16T07:18:27.000Z,7.4
2023-04-16T07:19:33.000Z,8.7
2023-04-16T07:20:39.000Z,8
2023-04-16T07:21:44.000Z,8.3
2023-04-16T07:22:50.000Z,8
2023-04-16T07:27:15.000Z,8.3
2023-04-16T07:28:20.000Z,8.3
2023-04-16T07:29:25.000Z,8.7
2023-04-16T07:30:31.000Z,9.3
2023-04-16T07:31:37.000Z,9.3
2023-04-16T07:32:43.000Z,8.3
2023-04-16T07:33:49.000Z,8
2023-04-16T07:34:55.000Z,8.3
2023-04-16T07:36:01.000Z,8.3
2023-04-16T07:37:07.000Z,8
2023-04-16T07:38:13.000Z,8.3
2023-04-16T07:39:20.000Z,8.7
2023-04-16T07:40:25.000Z,8.7
2023-04-16T07:41:30.000Z,8.3
2023-04-16T07:42:36.000Z,8.3
2023-04-16T07:43:42.000Z,8
2023-04-16T07:44:48.000Z,8
2023-04-16T07:45:54.000Z,8.3
2023-04-16T07:47:00.000Z,8.3
2023-04-16T07:48:06.000Z,8.7
2023-04-16T07:49:12.000Z,8.7
2023-04-16T07:50:18.000Z,8.3
2023-04-16T07:51:24.000Z,8
2023-04-16T07:52:30.000Z,8
2023-04-16T07:53:37.000Z,8.3
2023-04-16T07:54:43.000Z,8.7
2023-04-16T07:56:54.000Z,8.3
2023-04-16T07:58:00.000Z,8
2023-04-16T07:59:06.000Z,8.7
2023-04-16T08:00:12.000Z,9.3
2023-04-16T08:01:18.000Z,8.3
2023-04-16T08:02:24.000Z,8
2023-04-16T08:04:36.000Z,8
2023-04-16T08:05:42.000Z,8.3
2023-04-16T08:06:49.000Z,8.3
2023-04-16T08:07:55.000Z,8
2023-04-16T08:09:01.000Z,8
2023-04-16T08:10:06.000Z,8
2023-04-16T08:11:12.000Z,7.4
2023-04-16T08:12:18.000Z,7.7
2023-04-16T08:13:24.000Z,8
2023-04-16T08:15:36.000Z,8.3
2023-04-16T08:16:41.000Z,8.7
2023-04-16T08:17:46.000Z,8.7
2023-04-16T08:18:52.000Z,8.7
2023-04-16T08:21:05.000Z,8.7
2023-04-16T08:22:11.000Z,8
2023-04-16T08:23:17.000Z,8.3
2023-04-16T08:24:23.000Z,8
2023-04-16T08:25:29.000Z,8
2023-04-16T08:26:35.000Z,8.3
2023-04-16T08:27:41.000Z,8.3
2023-04-16T08:28:47.000Z,8.3
2023-04-16T08:29:53.000Z,8.3
2023-04-16T08:30:59.000Z,8.7
2023-04-16T08:32:04.000Z,7.7
2023-04-16T08:33:11.000Z,7.7
2023-04-16T08:34:17.000Z,8.3
2023-04-16T08:35:23.000Z,8
2023-04-16T08:36:29.000Z,8.3
2023-04-16T08:37:35.000Z,8.3
2023-04-16T08:38:41.000Z,8.7
2023-04-16T08:39:47.000Z,8.3
2023-04-16T08:40:52.000Z,7.7
2023-04-16T08:41:57.000Z,8
2023-04-16T08:43:03.000Z,8.3
2023-04-16T08:44:09.000Z,8
2023-04-16T08:45:16.000Z,8.3
2023-04-16T08:46:22.000Z,8.3
2023-04-16T08:47:28.000Z,8.3
2023-04-16T08:48:34.000Z,8.7
2023-04-16T08:49:40.000Z,9
2023-04-16T08:50:46.000Z,7.7
2023-04-16T08:51:52.000Z,7.7
2023-04-16T08:52:58.000Z,8.3
2023-04-16T08:54:04.000Z,8.3
2023-04-16T08:55:10.000Z,8.3
2023-04-16T08:56:15.000Z,8
2023-04-16T08:57:21.000Z,8
2023-04-16T08:59:33.000Z,8.3
2023-04-16T09:00:40.000Z,8.7
2023-04-16T09:01:46.000Z,9.3
2023-04-16T09:02:52.000Z,8
2023-04-16T09:03:58.000Z,7.7
2023-04-16T09:05:04.000Z,8
2023-04-16T09:06:10.000Z,8.3
2023-04-16T09:07:16.000Z,8.7
2023-04-16T09:08:21.000Z,8
2023-04-16T09:10:33.000Z,8
2023-04-16T09:11:39.000Z,8
2023-04-16T09:12:45.000Z,8
2023-04-16T09:13:52.000Z,8
2023-04-16T09:14:58.000Z,8.7
2023-04-16T09:16:04.000Z,8.7
2023-04-16T09:17:10.000Z,8.3
2023-04-16T09:18:16.000Z,8
2023-04-16T09:19:22.000Z,8.3
2023-04-16T09:20:28.000Z,8.3
2023-04-16T09:21:34.000Z,8
2023-04-16T09:22:39.000Z,9
2023-04-16T09:23:45.000Z,8
2023-04-16T09:24:51.000Z,8
2023-04-16T09:25:57.000Z,7.7
2023-04-16T09:27:04.000Z,8.7
2023-04-16T09:28:10.000Z,8
2023-04-16T09:29:16.000Z,8
2023-04-16T09:30:22.000Z,8.3
2023-04-16T09:31:28.000Z,8
2023-04-16T09:32:34.000Z,8.3
2023-04-16T09:33:40.000Z,8.7
2023-04-16T09:34:46.000Z,8
2023-04-16T09:35:52.000Z,8.3
2023-04-16T09:36:57.000Z,7.7
2023-04-16T09:38:03.000Z,8.7
2023-04-16T09:40:15.000Z,9.6
2023-04-16T09:41:22.000Z,9.3
2023-04-16T09:43:34.000Z,8
2023-04-16T09:44:40.000Z,7.7
2023-04-16T09:45:46.000Z,8.7
2023-04-16T09:46:52.000Z,8.3
2023-04-16T09:47:58.000Z,8.7
2023-04-16T09:49:04.000Z,8
2023-04-16T09:50:10.000Z,8.3
2023-04-16T09:51:15.000Z,8.7
2023-04-16T09:52:21.000Z,8.3
2023-04-16T09:53:27.000Z,8.3
2023-04-16T09:54:33.000Z,8.3
2023-04-16T09:55:40.000Z,8.3
2023-04-16T09:56:46.000Z,9
2023-04-16T09:57:52.000Z,8.7
2023-04-16T09:58:58.000Z,8.3
2023-04-16T10:00:04.000Z,8.3
2023-04-16T10:01:10.000Z,9
2023-04-16T10:02:16.000Z,7.4
2023-04-16T10:03:22.000Z,8.7
2023-04-16T10:05:34.000Z,8.3
2023-04-16T10:06:39.000Z,8.3
2023-04-16T10:07:45.000Z,8.3
2023-04-16T10:08:51.000Z,8.3
2023-04-16T10:09:58.000Z,8
2023-04-16T10:11:04.000Z,8.3
2023-04-16T10:12:10.000Z,8.3
2023-04-16T10:13:16.000Z,8.3
2023-04-16T10:14:22.000Z,9.3
2023-04-16T10:15:28.000Z,8.7
2023-04-16T10:16:34.000Z,9
2023-04-16T10:17:40.000Z,8.3
2023-04-16T10:18:46.000Z,8.7
2023-04-16T10:19:52.000Z,9
2023-04-16T10:20:57.000Z,8.7
2023-04-16T10:22:03.000Z,8.3
2023-04-16T10:23:10.000Z,8.3
2023-04-16T10:24:16.000Z,9
2023-04-16T10:25:22.000Z,9
2023-04-16T10:26:28.000Z,7.4
2023-04-16T10:27:34.000Z,8.3
2023-04-16T10:28:40.000Z,8.3
2023-04-16T10:29:46.000Z,9
2023-04-16T10:30:52.000Z,8.3
2023-04-16T10:31:58.000Z,8.3
2023-04-16T10:33:04.000Z,8.3
2023-04-16T10:34:10.000Z,8.7
2023-04-16T10:35:15.000Z,8.3
2023-04-16T10:36:21.000Z,8.7
2023-04-16T10:38:34.000Z,8.7
2023-04-16T10:39:40.000Z,8.3
2023-04-16T10:40:46.000Z,8.7
2023-04-16T10:41:52.000Z,8.7
2023-04-16T10:42:58.000Z,8.7
2023-04-16T10:44:04.000Z,7.7
2023-04-16T10:45:10.000Z,8.3
2023-04-16T10:46:16.000Z,8.7
2023-04-16T10:47:22.000Z,8.7
2023-04-16T10:49:34.000Z,9.9
2023-04-16T10:50:41.000Z,8.7
2023-04-16T10:51:46.000Z,9
2023-04-16T10:53:58.000Z,8.7
2023-04-16T10:55:03.000Z,9
2023-04-16T10:56:08.000Z,9
2023-04-16T10:57:14.000Z,8
2023-04-16T10:58:20.000Z,9.3
2023-04-16T11:00:32.000Z,9.3
2023-04-16T11:01:38.000Z,8.7
2023-04-16T11:02:45.000Z,8.7
2023-04-16T11:03:51.000Z,8.3
2023-04-16T11:04:57.000Z,8.7
2023-04-16T11:06:03.000Z,9.3
2023-04-16T11:07:09.000Z,9
2023-04-16T11:08:15.000Z,8.7
2023-04-16T11:09:21.000Z,9.3
2023-04-16T11:10:27.000Z,8
2023-04-16T11:11:32.000Z,8.7
2023-04-16T11:12:38.000Z,8.7
2023-04-16T11:13:44.000Z,8.7
2023-04-16T11:15:56.000Z,9
2023-04-16T11:17:02.000Z,8.3
2023-04-16T11:19:13.000Z,8.3
2023-04-16T11:20:19.000Z,8.3
2023-04-16T11:21:25.000Z,9
2023-04-16T11:22:31.000Z,9
2023-04-16T11:23:37.000Z,9
2023-04-16T11:24:43.000Z,8.7
2023-04-16T11:25:49.000Z,9.3
2023-04-16T11:28:01.000Z,8.7
2023-04-16T11:29:07.000Z,8.7
2023-04-16T11:30:14.000Z,8
2023-04-16T11:33:32.000Z,9.3
2023-04-16T11:34:37.000Z,9
2023-04-16T11:35:43.000Z,9
2023-04-16T11:36:49.000Z,8.3
2023-04-16T11:37:55.000Z,8.7
2023-04-16T11:39:01.000Z,9
2023-04-16T11:40:07.000Z,9
2023-04-16T11:41:13.000Z,8.3
2023-04-16T11:42:19.000Z,8.7
2023-04-16T11:44:31.000Z,8
2023-04-16T11:45:38.000Z,8.7
2023-04-16T11:46:44.000Z,9.6
2023-04-16T11:47:50.000Z,7.7
2023-04-16T11:48:55.000Z,9
2023-04-16T11:50:01.000Z,8.7
2023-04-16T11:51:07.000Z,8.7
2023-04-16T11:52:13.000Z,9.3
2023-04-16T11:53:19.000Z,9
2023-04-16T11:55:31.000Z,9
2023-04-16T11:56:37.000Z,9.3
2023-04-16T11:57:44.000Z,8.7
2023-04-16T11:58:50.000Z,9
2023-04-16T11:59:56.000Z,9
2023-04-16T12:01:02.000Z,9.3
2023-04-16T12:02:08.000Z,9.3
2023-04-16T12:03:13.000Z,9
2023-04-16T12:04:19.000Z,8.3
2023-04-16T12:05:25.000Z,9
2023-04-16T12:06:31.000Z,9
2023-04-16T12:07:36.000Z,9.3
2023-04-16T12:08:41.000Z,9.6
2023-04-16T12:09:47.000Z,8.7
2023-04-16T12:10:53.000Z,9
2023-04-16T12:12:00.000Z,9
2023-04-16T12:13:06.000Z,8.7
2023-04-16T12:14:12.000Z,8.7
2023-04-16T12:15:18.000Z,9.3
2023-04-16T12:17:30.000Z,9.3
2023-04-16T12:18:36.000Z,8.7
2023-04-16T12:19:42.000Z,9.3
2023-04-16T12:20:48.000Z,9.6
2023-04-16T12:21:54.000Z,9.3
2023-04-16T12:22:59.000Z,9
2023-04-16T12:24:06.000Z,8.7
2023-04-16T12:25:12.000Z,9.3
2023-04-16T12:26:18.000Z,9.6
2023-04-16T12:27:24.000Z,9
2023-04-16T12:28:30.000Z,8.3
2023-04-16T12:29:36.000Z,9.3
2023-04-16T12:31:48.000Z,8.7
2023-04-16T12:32:54.000Z,8.7
2023-04-16T12:34:00.000Z,9.3
2023-04-16T12:35:06.000Z,9.3
2023-04-16T12:36:12.000Z,9.3
2023-04-16T12:37:17.000Z,9
2023-04-16T12:38:23.000Z,9.3
2023-04-16T12:39:30.000Z,9
2023-04-16T12:40:36.000Z,9
2023-04-16T12:41:42.000Z,9.3
2023-04-16T12:42:48.000Z,9.6
2023-04-16T12:43:54.000Z,9
2023-04-16T12:45:00.000Z,9.3
2023-04-16T12:46:06.000Z,8.7
2023-04-16T12:47:12.000Z,9
2023-04-16T12:48:18.000Z,8.3
2023-04-16T12:50:29.000Z,9.9
2023-04-16T12:51:36.000Z,9.3
2023-04-16T12:52:41.000Z,9.6
2023-04-16T12:53:47.000Z,9
2023-04-16T12:54:52.000Z,9
2023-04-16T12:55:57.000Z,9
2023-04-16T12:57:03.000Z,9
2023-04-16T12:58:09.000Z,9.6
2023-04-16T12:59:15.000Z,8.7
2023-04-16T13:01:27.000Z,9.3
2023-04-16T13:02:33.000Z,8.3
2023-04-16T13:03:39.000Z,9.3
2023-04-16T13:04:45.000Z,9.6
2023-04-16T13:05:52.000Z,9.6
2023-04-16T13:06:58.000Z,9.3
2023-04-16T13:08:04.000Z,9.6
2023-04-16T13:09:10.000Z,9.6
2023-04-16T13:10:15.000Z,9.3
2023-04-16T13:12:27.000Z,9.3
2023-04-16T13:13:32.000Z,9
2023-04-16T13:14:37.000Z,9.3
2023-04-16T13:15:43.000Z,9.3
2023-04-16T13:16:49.000Z,9.3
2023-04-16T13:17:55.000Z,9.3
2023-04-16T13:20:08.000Z,9.6
2023-04-16T13:21:14.000Z,9.6
2023-04-16T13:22:20.000Z,8.7
2023-04-16T13:23:26.000Z,9
2023-04-16T13:24:32.000Z,9
2023-04-16T13:25:38.000Z,9.9
2023-04-16T13:26:44.000Z,9
2023-04-16T13:27:50.000Z,9.6
2023-04-16T13:28:55.000Z,9
2023-04-16T13:30:01.000Z,9.3
2023-04-16T13:31:08.000Z,9.3
2023-04-16T13:32:14.000Z,9
2023-04-16T13:33:20.000Z,10.3
2023-04-16T13:34:26.000Z,9
2023-04-16T13:35:32.000Z,9.3
2023-04-16T13:36:38.000Z,8.3
2023-04-16T13:37:43.000Z,9.3
2023-04-16T13:39:54.000Z,10.3
2023-04-16T13:41:00.000Z,9.6
2023-04-16T13:42:06.000Z,9.3
2023-04-16T13:43:12.000Z,9.6
2023-04-16T13:44:18.000Z,9.6
2023-04-16T13:45:24.000Z,8.7
2023-04-16T13:46:31.000Z,9.6
2023-04-16T13:47:37.000Z,9
2023-04-16T13:48:43.000Z,9.3
2023-04-16T13:50:55.000Z,9.6
2023-04-16T13:52:01.000Z,9.3
2023-04-16T13:53:06.000Z,8.7
2023-04-16T13:54:12.000Z,9.6
2023-04-16T13:56:24.000Z,9.6
2023-04-16T13:57:29.000Z,9.3
2023-04-16T13:58:35.000Z,9.6
2023-04-16T14:00:47.000Z,9.9
2023-04-16T14:01:53.000Z,9.3
2023-04-16T14:02:59.000Z,9
2023-04-16T14:04:05.000Z,9.6
2023-04-16T14:05:11.000Z,9.6
2023-04-16T14:06:17.000Z,9.3
2023-04-16T14:07:23.000Z,9.3
2023-04-16T14:08:29.000Z,9.3
2023-04-16T14:10:41.000Z,9.6
2023-04-16T14:11:46.000Z,8.3
2023-04-16T14:12:52.000Z,9.3
2023-04-16T14:13:58.000Z,9.6
2023-04-16T14:15:04.000Z,9.6
2023-04-16T14:16:10.000Z,9.6
2023-04-16T14:17:16.000Z,9.6
2023-04-16T14:18:22.000Z,9.6
2023-04-16T14:19:28.000Z,9.3
2023-04-16T14:20:34.000Z,9.6
2023-04-16T14:21:40.000Z,9.6
2023-04-16T14:22:46.000Z,9
2023-04-16T14:23:51.000Z,9.6
2023-04-16T14:24:56.000Z,9.9
2023-04-16T14:26:03.000Z,9.6
2023-04-16T14:27:09.000Z,9.6
2023-04-16T14:28:15.000Z,9.6
2023-04-16T14:29:21.000Z,9
2023-04-16T14:30:27.000Z,9
2023-04-16T14:31:33.000Z,9.3
2023-04-16T14:32:39.000Z,9.3
2023-04-16T14:33:45.000Z,8.7
2023-04-16T14:34:51.000Z,9.6
2023-04-16T14:35:56.000Z,9
2023-04-16T14:37:01.000Z,8.3
2023-04-16T14:38:07.000Z,9.6
2023-04-16T14:39:13.000Z,9.3
2023-04-16T14:40:20.000Z,9.3
2023-04-16T14:41:26.000Z,9.6
2023-04-16T14:42:32.000Z,9.6
2023-04-16T14:43:38.000Z,9.6
2023-04-16T14:44:44.000Z,9.6
2023-04-16T14:45:50.000Z,9.3
2023-04-16T14:46:56.000Z,9.3
2023-04-16T14:48:02.000Z,9
2023-04-16T14:50:14.000Z,9.9
2023-04-16T14:51:19.000Z,9
2023-04-16T14:52:25.000Z,9.9
2023-04-16T14:53:31.000Z,9.6
2023-04-16T14:54:38.000Z,9.9
2023-04-16T14:55:44.000Z,9.6
2023-04-16T14:56:50.000Z,9.9
2023-04-16T14:57:56.000Z,9.3
2023-04-16T14:59:02.000Z,9.3
2023-04-16T15:00:08.000Z,9.3
2023-04-16T15:02:20.000Z,9.3
2023-04-16T15:03:26.000Z,9
2023-04-16T15:04:32.000Z,9.3
2023-04-16T15:05:37.000Z,9.3
2023-04-16T15:06:43.000Z,9.6
2023-04-16T15:07:50.000Z,8.7
2023-04-16T15:08:56.000Z,9
2023-04-16T15:10:02.000Z,9
2023-04-16T15:11:08.000Z,9.9
2023-04-16T15:13:20.000Z,9.9
2023-04-16T15:14:26.000Z,9.6
2023-04-16T15:15:32.000Z,9.6
2023-04-16T15:16:38.000Z,9.9
2023-04-16T15:17:44.000Z,9.9
2023-04-16T15:18:50.000Z,9
2023-04-16T15:19:55.000Z,9.6
2023-04-16T15:21:01.000Z,9.6
2023-04-16T15:22:08.000Z,9.9
2023-04-16T15:23:14.000Z,9.3
2023-04-16T15:24:20.000Z,9.9
2023-04-16T15:25:26.000Z,9.6
2023-04-16T15:26:32.000Z,10.3
2023-04-16T15:27:38.000Z,9.6
2023-04-16T15:28:44.000Z,9.3
2023-04-16T15:29:50.000Z,8.7
2023-04-16T15:30:56.000Z,9.9
2023-04-16T15:32:02.000Z,10.3
2023-04-16T15:34:14.000Z,9.6
2023-04-16T15:35:19.000Z,9.9
2023-04-16T15:36:25.000Z,9.6
2023-04-16T15:37:32.000Z,9.6
2023-04-16T15:38:38.000Z,10.3
2023-04-16T15:39:44.000Z,9.6
2023-04-16T15:40:50.000Z,9.9
2023-04-16T15:41:56.000Z,9.6
2023-04-16T15:43:02.000Z,9.3
2023-04-16T15:44:08.000Z,9.6
2023-04-16T15:46:20.000Z,9
2023-04-16T15:47:26.000Z,9.6
2023-04-16T15:48:32.000Z,9.6
2023-04-16T15:49:38.000Z,10.3
2023-04-16T15:50:44.000Z,9.9
2023-04-16T15:51:50.000Z,9
2023-04-16T15:52:56.000Z,9.3
2023-04-16T15:55:08.000Z,9.9
2023-04-16T15:57:19.000Z,9
2023-04-16T15:58:24.000Z,9.6
2023-04-16T15:59:29.000Z,9.6
2023-04-16T16:00:35.000Z,9.6
2023-04-16T16:02:47.000Z,9.6
2023-04-16T16:03:54.000Z,9.3
2023-04-16T16:05:00.000Z,9.6
2023-04-16T16:06:06.000Z,9.3
2023-04-16T16:09:24.000Z,9.6
2023-04-16T16:10:30.000Z,9.9
2023-04-16T16:11:36.000Z,9.9
2023-04-16T16:12:42.000Z,9.3
2023-04-16T16:13:48.000Z,9.3
2023-04-16T16:14:53.000Z,9.3
2023-04-16T16:15:58.000Z,9
2023-04-16T16:17:04.000Z,9.6
2023-04-16T16:18:11.000Z,9.3
2023-04-16T16:19:17.000Z,9.6
2023-04-16T16:20:23.000Z,9.9
2023-04-16T16:21:29.000Z,9.9
2023-04-16T16:22:35.000Z,9.9
2023-04-16T16:23:41.000Z,9.6
2023-04-16T16:24:47.000Z,9.3
2023-04-16T16:25:53.000Z,9.6
2023-04-16T16:26:58.000Z,9.6
2023-04-16T16:28:03.000Z,9.6
2023-04-16T16:29:09.000Z,10.3
2023-04-16T16:30:15.000Z,9.6
2023-04-16T16:31:22.000Z,9.3
2023-04-16T16:32:28.000Z,8.7
2023-04-16T16:33:33.000Z,9.3
2023-04-16T16:34:39.000Z,9.9
2023-04-16T16:35:45.000Z,9.9
2023-04-16T16:36:51.000Z,9.6
2023-04-16T16:37:57.000Z,10.3
2023-04-16T16:39:02.000Z,9
2023-04-16T16:40:07.000Z,9.9
2023-04-16T16:41:13.000Z,9.6